Time;durP1;ratioP1;P1;durP2;ratioP2;P2;SDS_P1;SDS_P2;PMS_P1;PMS_P2;Temp;Humidity;BMP_temperature;BMP_pressure;BME280_temperature;BME280_humidity;BME280_pressure;Samples;Min_cycle;Max_cycle;Signal;HPM_P1;HPM_P2
2023/01/23 00:01:05;;;;;;;34.03;19.40;;;2.10;99.90;;;;;;5011091;28;20091;-84
2023/01/23 00:03:34;;;;;;;40.63;20.45;;;2.10;99.90;;;;;;4991382;28;20033;-84
2023/01/23 00:06:02;;;;;;;33.50;19.20;;;2.10;99.90;;;;;;5014930;28;20025;-84
2023/01/23 00:08:28;;;;;;;34.60;19.95;;;2.10;99.90;;;;;;4993210;28;20040;-84
2023/01/23 00:10:53;;;;;;;34.47;19.65;;;2.10;99.90;;;;;;5024935;28;20516;-84
2023/01/23 00:13:19;;;;;;;32.88;18.98;;;2.10;99.90;;;;;;4994711;28;20544;-84
2023/01/23 00:15:45;;;;;;;28.08;17.30;;;2.10;99.90;;;;;;5028140;28;20034;-83
2023/01/23 00:18:11;;;;;;;29.08;17.58;;;2.10;99.90;;;;;;4995590;28;20035;-83
2023/01/23 00:20:37;;;;;;;30.45;17.92;;;2.10;99.90;;;;;;5011108;28;20084;-84
2023/01/23 00:23:03;;;;;;;29.58;18.08;;;2.10;99.90;;;;;;4997163;28;20047;-83
2023/01/23 00:25:29;;;;;;;31.17;18.23;;;2.10;99.90;;;;;;4995445;28;20021;-83
2023/01/23 00:27:54;;;;;;;32.58;17.55;;;2.10;99.90;;;;;;5007396;28;20041;-84
2023/01/23 00:30:20;;;;;;;29.42;17.45;;;2.10;99.90;;;;;;5027824;28;20032;-84
2023/01/23 00:32:45;;;;;;;28.70;15.75;;;2.10;99.90;;;;;;5016383;28;20074;-84
2023/01/23 00:35:11;;;;;;;27.85;15.60;;;2.10;99.90;;;;;;5013746;28;20484;-84
2023/01/23 00:37:36;;;;;;;33.63;18.88;;;2.10;99.90;;;;;;5004830;28;21067;-84
2023/01/23 00:40:02;;;;;;;28.65;18.88;;;2.10;99.90;;;;;;5013343;28;20045;-83
2023/01/23 00:42:28;;;;;;;31.35;19.60;;;2.00;99.90;;;;;;5027634;28;20163;-84
2023/01/23 00:44:53;;;;;;;31.80;17.98;;;2.00;99.90;;;;;;5015327;28;20444;-83
2023/01/23 00:47:19;;;;;;;29.40;17.63;;;2.10;99.90;;;;;;5031969;28;20401;-83
2023/01/23 00:49:44;;;;;;;31.73;17.73;;;2.10;99.90;;;;;;5028272;28;20029;-84
2023/01/23 00:52:10;;;;;;;30.00;17.70;;;2.10;99.90;;;;;;4987534;28;20029;-84
2023/01/23 00:54:37;;;;;;;30.45;18.50;;;2.10;99.90;;;;;;4990810;28;20439;-84
2023/01/23 00:57:02;;;;;;;30.05;19.05;;;2.20;99.90;;;;;;5013747;28;20552;-84
2023/01/23 00:59:28;;;;;;;29.38;18.63;;;2.10;99.90;;;;;;5009867;28;20128;-84
2023/01/23 01:01:54;;;;;;;30.65;17.48;;;2.10;99.90;;;;;;5027032;28;20102;-84
2023/01/23 01:04:19;;;;;;;30.83;17.75;;;2.10;99.90;;;;;;4997269;28;20025;-84
2023/01/23 01:06:45;;;;;;;30.58;18.02;;;2.20;99.90;;;;;;5013883;28;20136;-84
2023/01/23 01:09:10;;;;;;;28.73;17.98;;;2.20;99.90;;;;;;5010384;28;20116;-84
2023/01/23 01:11:36;;;;;;;32.42;17.90;;;2.20;99.90;;;;;;5010529;28;20037;-84
2023/01/23 01:14:01;;;;;;;28.30;17.00;;;2.10;99.90;;;;;;5022134;28;20026;-84
2023/01/23 01:16:27;;;;;;;30.23;17.63;;;2.20;99.90;;;;;;4993967;28;20346;-84
2023/01/23 01:18:53;;;;;;;33.53;18.50;;;2.10;99.90;;;;;;5012567;28;20504;-84
2023/01/23 01:21:19;;;;;;;29.65;17.80;;;2.20;99.90;;;;;;5012827;28;20082;-84
2023/01/23 01:23:45;;;;;;;33.58;18.75;;;2.20;99.90;;;;;;5019666;28;20094;-84
2023/01/23 01:26:11;;;;;;;29.55;18.70;;;2.10;99.90;;;;;;5009642;28;20043;-84
2023/01/23 01:28:38;;;;;;;37.05;19.25;;;2.10;99.90;;;;;;4991897;28;20578;-83
2023/01/23 01:31:06;;;;;;;30.80;18.23;;;2.10;99.90;;;;;;5007572;28;20255;-84
2023/01/23 01:33:33;;;;;;;29.42;18.70;;;2.10;99.90;;;;;;4989072;28;20040;-84
2023/01/23 01:35:59;;;;;;;30.05;17.73;;;2.10;99.90;;;;;;5010583;28;20030;-83
2023/01/23 01:38:25;;;;;;;32.60;17.40;;;2.20;99.90;;;;;;5025302;28;20025;-84
2023/01/23 01:40:50;;;;;;;28.42;17.70;;;2.10;99.90;;;;;;4999577;28;20047;-84
2023/01/23 01:43:25;;;;;;;27.88;16.58;;;2.10;99.90;;;;;;5010811;28;20108;-84
2023/01/23 01:46:05;;;;;;;28.37;16.43;;;2.10;99.90;;;;;;5012888;28;20108;-84
2023/01/23 01:49:13;;;;;;;27.33;17.30;;;2.10;99.90;;;;;;5025549;28;20036;-84
2023/01/23 01:51:43;;;;;;;28.70;17.60;;;2.20;99.90;;;;;;4940754;28;20035;-84
2023/01/23 01:54:08;;;;;;;28.80;16.75;;;2.20;99.90;;;;;;4944652;28;20077;-84
2023/01/23 01:56:38;;;;;;;27.23;16.45;;;2.10;99.90;;;;;;4981135;28;20414;-84
2023/01/23 01:59:04;;;;;;;27.63;17.60;;;2.10;99.90;;;;;;5009875;28;20037;-84
2023/01/23 02:01:29;;;;;;;29.13;16.67;;;2.10;99.90;;;;;;5008712;28;20627;-84
2023/01/23 02:03:55;;;;;;;27.23;16.83;;;2.10;99.90;;;;;;5008220;28;20487;-84
2023/01/23 02:06:21;;;;;;;28.05;16.15;;;2.10;99.90;;;;;;5010625;28;20118;-83
2023/01/23 02:08:50;;;;;;;30.33;16.48;;;2.10;99.90;;;;;;5009261;28;20048;-84
2023/01/23 02:11:17;;;;;;;26.25;16.05;;;2.10;99.90;;;;;;5009647;28;20500;-84
2023/01/23 02:13:44;;;;;;;26.20;16.48;;;2.10;99.90;;;;;;4995014;28;20400;-83
2023/01/23 02:16:20;;;;;;;32.00;17.38;;;2.10;99.90;;;;;;5008891;28;20488;-84
2023/01/23 02:18:47;;;;;;;29.30;16.08;;;2.10;99.90;;;;;;5007670;28;20041;-84
2023/01/23 02:21:14;;;;;;;27.88;16.65;;;2.10;99.90;;;;;;5010128;28;20492;-84
2023/01/23 02:23:43;;;;;;;27.92;17.85;;;2.10;99.90;;;;;;5008229;28;20059;-84
2023/01/23 02:26:15;;;;;;;26.83;17.17;;;2.10;99.90;;;;;;5034386;28;20037;-84
2023/01/23 02:28:43;;;;;;;30.15;16.83;;;2.10;99.90;;;;;;5012693;28;20029;-84
2023/01/23 02:31:09;;;;;;;30.15;16.88;;;2.10;99.90;;;;;;5026570;28;20044;-83
2023/01/23 02:33:35;;;;;;;27.10;15.98;;;2.10;99.90;;;;;;5011188;28;20033;-84
2023/01/23 02:36:01;;;;;;;25.48;16.45;;;2.10;99.90;;;;;;5045956;28;20033;-83
2023/01/23 02:38:38;;;;;;;32.58;17.40;;;2.10;99.90;;;;;;4993697;28;20036;-84
2023/01/23 02:41:05;;;;;;;29.08;17.08;;;2.10;99.90;;;;;;5020997;28;20036;-83
2023/01/23 02:43:37;;;;;;;29.30;18.15;;;2.10;99.90;;;;;;5008848;28;20040;-83
2023/01/23 02:46:08;;;;;;;31.83;16.00;;;2.00;99.90;;;;;;5009247;28;20409;-84
2023/01/23 02:48:34;;;;;;;31.67;17.60;;;2.00;99.90;;;;;;4994423;28;20071;-83
2023/01/23 02:50:59;;;;;;;29.02;17.60;;;2.00;99.90;;;;;;5008919;28;20025;-83
2023/01/23 02:53:26;;;;;;;28.63;16.77;;;1.90;99.90;;;;;;5016286;28;20033;-83
2023/01/23 02:55:52;;;;;;;29.20;17.02;;;2.00;99.90;;;;;;5027644;28;20389;-83
2023/01/23 03:01:02;;;;;;;31.48;17.05;;;1.90;99.90;;;;;;5013999;28;20036;-83
2023/01/23 03:03:29;;;;;;;28.63;16.67;;;2.00;99.90;;;;;;5026696;28;20040;-83
2023/01/23 03:05:55;;;;;;;27.45;16.13;;;1.90;99.90;;;;;;4994388;28;20049;-83
2023/01/23 03:08:20;;;;;;;30.52;17.65;;;1.90;99.90;;;;;;5041389;28;20105;-83
2023/01/23 03:10:46;;;;;;;30.75;16.27;;;2.00;99.90;;;;;;5006094;28;20460;-83
2023/01/23 03:13:12;;;;;;;28.83;16.52;;;1.90;99.90;;;;;;5006704;28;20057;-83
2023/01/23 03:15:38;;;;;;;31.17;17.70;;;2.00;99.90;;;;;;5007884;28;20479;-82
2023/01/23 03:18:04;;;;;;;28.77;16.58;;;2.00;99.90;;;;;;5006044;28;20124;-83
2023/01/23 03:20:33;;;;;;;31.83;19.27;;;2.00;99.90;;;;;;4993896;28;20079;-83
2023/01/23 03:22:59;;;;;;;34.08;20.38;;;1.90;99.90;;;;;;4997211;28;20029;-83
2023/01/23 03:25:24;;;;;;;37.20;20.83;;;1.90;99.90;;;;;;5009075;28;20026;-83
2023/01/23 03:27:50;;;;;;;42.97;20.52;;;1.80;99.90;;;;;;5009512;28;20114;-84
2023/01/23 03:30:15;;;;;;;33.28;19.13;;;1.80;99.90;;;;;;5024399;28;20021;-83
2023/01/23 03:32:42;;;;;;;37.55;18.23;;;1.80;99.90;;;;;;5010486;28;20404;-83
2023/01/23 03:35:09;;;;;;;41.65;21.85;;;1.80;99.90;;;;;;5027828;28;20444;-83
2023/01/23 03:37:35;;;;;;;35.67;19.42;;;1.80;99.90;;;;;;5009399;28;20060;-84
2023/01/23 03:42:44;;;;;;;33.45;17.98;;;1.80;99.90;;;;;;5013188;28;20510;-83
2023/01/23 03:45:10;;;;;;;34.72;18.85;;;1.80;99.90;;;;;;5009616;28;20116;-83
2023/01/23 03:47:35;;;;;;;39.17;20.55;;;1.80;99.90;;;;;;5026048;28;20053;-83
2023/01/23 03:50:01;;;;;;;32.53;18.00;;;1.80;99.90;;;;;;5009643;28;20033;-84
2023/01/23 03:52:26;;;;;;;40.17;20.00;;;1.80;99.90;;;;;;5026796;28;20033;-83
2023/01/23 03:54:52;;;;;;;34.70;19.83;;;1.80;99.90;;;;;;5009222;28;20033;-84
2023/01/23 03:57:17;;;;;;;37.63;19.38;;;1.80;99.90;;;;;;5029159;28;20523;-83
2023/01/23 03:59:43;;;;;;;35.67;18.90;;;1.90;99.90;;;;;;4996215;28;20064;-83
2023/01/23 04:02:09;;;;;;;41.78;20.35;;;1.90;99.90;;;;;;5000486;28;20033;-83
2023/01/23 04:04:34;;;;;;;35.10;18.85;;;1.80;99.90;;;;;;5014792;28;20056;-83
2023/01/23 04:07:00;;;;;;;36.90;20.45;;;1.90;99.90;;;;;;5008944;28;20029;-83
2023/01/23 04:09:26;;;;;;;34.15;19.83;;;1.90;99.90;;;;;;4997743;28;20499;-83
2023/01/23 04:11:55;;;;;;;36.97;18.85;;;1.90;99.90;;;;;;5019813;28;20068;-84
2023/01/23 04:14:21;;;;;;;38.33;22.13;;;1.90;99.90;;;;;;5011557;28;20037;-83
2023/01/23 04:16:47;;;;;;;31.38;17.10;;;1.90;99.90;;;;;;5012793;28;20054;-84
2023/01/23 04:19:13;;;;;;;34.75;18.83;;;1.90;99.90;;;;;;4998109;28;20056;-84
2023/01/23 04:21:38;;;;;;;34.88;20.42;;;1.90;99.90;;;;;;5007752;28;20112;-83
2023/01/23 04:24:04;;;;;;;30.70;17.67;;;1.90;99.90;;;;;;5009988;28;20090;-83
2023/01/23 04:26:30;;;;;;;30.23;17.50;;;1.90;99.90;;;;;;4997476;28;20029;-83
2023/01/23 04:28:55;;;;;;;30.60;19.70;;;1.90;99.90;;;;;;5013722;28;20033;-84
2023/01/23 04:31:21;;;;;;;35.05;19.35;;;1.90;99.90;;;;;;4997356;28;20041;-84
2023/01/23 04:33:46;;;;;;;33.03;19.65;;;2.00;99.90;;;;;;5013263;28;20032;-84
2023/01/23 04:36:12;;;;;;;33.70;19.92;;;2.00;99.90;;;;;;5021970;28;20112;-84
2023/01/23 04:38:38;;;;;;;33.65;21.85;;;2.00;99.90;;;;;;5011363;28;20032;-83
2023/01/23 04:41:03;;;;;;;30.20;16.15;;;2.00;99.90;;;;;;5012157;28;20061;-83
2023/01/23 04:43:29;;;;;;;31.98;17.17;;;2.00;99.90;;;;;;4995536;28;20388;-83
2023/01/23 04:45:55;;;;;;;36.17;19.35;;;2.00;99.90;;;;;;5011547;28;20430;-83
2023/01/23 04:48:23;;;;;;;33.00;18.33;;;2.00;99.90;;;;;;5011627;28;20120;-84
2023/01/23 04:50:48;;;;;;;29.83;17.17;;;2.00;99.90;;;;;;5028730;28;20511;-83
2023/01/23 04:53:14;;;;;;;30.10;16.85;;;2.00;99.90;;;;;;4993374;28;20033;-83
2023/01/23 04:55:40;;;;;;;32.67;18.05;;;2.00;99.90;;;;;;5007837;28;20389;-83
2023/01/23 04:58:05;;;;;;;31.77;17.90;;;2.10;99.90;;;;;;5010525;28;20026;-84
2023/01/23 05:00:31;;;;;;;30.88;17.10;;;2.10;99.90;;;;;;4996563;28;20831;-83
2023/01/23 05:02:56;;;;;;;27.17;16.25;;;2.00;99.90;;;;;;4994872;28;20084;-83
2023/01/23 05:05:22;;;;;;;25.92;16.65;;;2.10;99.90;;;;;;5026318;28;20037;-84
2023/01/23 05:07:48;;;;;;;31.73;18.25;;;2.00;99.90;;;;;;5010146;28;20060;-83
2023/01/23 05:10:14;;;;;;;25.50;16.55;;;2.00;99.90;;;;;;5009839;28;20033;-84
2023/01/23 05:12:39;;;;;;;29.80;17.73;;;2.10;99.90;;;;;;5014179;28;20553;-84
2023/01/23 05:15:06;;;;;;;32.38;18.40;;;2.10;99.90;;;;;;5027803;28;20138;-84
2023/01/23 05:17:32;;;;;;;31.15;17.92;;;2.10;99.90;;;;;;4995424;28;20124;-84
2023/01/23 05:19:57;;;;;;;28.20;16.42;;;2.00;99.90;;;;;;4997300;28;21764;-83
2023/01/23 05:22:23;;;;;;;27.83;15.82;;;2.10;99.90;;;;;;5009897;28;20033;-83
2023/01/23 05:24:48;;;;;;;26.58;15.93;;;2.10;99.90;;;;;;5008746;28;20025;-83
2023/01/23 05:27:14;;;;;;;28.48;14.93;;;2.10;99.90;;;;;;5010098;28;20068;-83
2023/01/23 05:29:40;;;;;;;25.65;15.25;;;2.10;99.90;;;;;;5013681;28;20048;-84
2023/01/23 05:32:05;;;;;;;29.60;16.48;;;2.10;99.90;;;;;;5030625;28;20036;-83
2023/01/23 05:34:31;;;;;;;30.20;15.43;;;2.10;99.90;;;;;;5009155;28;20116;-84
2023/01/23 05:36:56;;;;;;;28.90;16.55;;;2.10;99.90;;;;;;5026845;28;20064;-84
2023/01/23 05:39:22;;;;;;;30.88;17.58;;;2.10;99.90;;;;;;5011270;28;20044;-84
2023/01/23 05:41:47;;;;;;;27.05;15.75;;;2.10;99.90;;;;;;5012811;28;20044;-84
2023/01/23 05:44:13;;;;;;;28.52;16.40;;;2.10;99.90;;;;;;5011118;28;20033;-84
2023/01/23 05:46:39;;;;;;;30.33;17.30;;;2.10;99.90;;;;;;4997210;28;20099;-84
2023/01/23 05:49:04;;;;;;;31.60;17.25;;;2.10;99.90;;;;;;5007154;28;20033;-84
2023/01/23 05:51:33;;;;;;;31.67;16.90;;;2.00;99.90;;;;;;4994703;28;20067;-84
2023/01/23 05:53:59;;;;;;;26.13;15.23;;;2.10;99.90;;;;;;4995913;28;20056;-84
2023/01/23 05:56:25;;;;;;;30.75;16.60;;;2.10;99.90;;;;;;5009982;28;20120;-84
2023/01/23 05:58:50;;;;;;;27.50;15.77;;;2.20;99.90;;;;;;5011051;28;20486;-84
2023/01/23 06:01:16;;;;;;;26.83;14.30;;;2.20;99.90;;;;;;5009449;28;20087;-84
2023/01/23 06:03:42;;;;;;;29.23;17.13;;;2.20;99.90;;;;;;5021521;28;20032;-84
2023/01/23 06:06:08;;;;;;;29.90;17.60;;;2.10;99.90;;;;;;4987916;28;20041;-84
2023/01/23 06:08:33;;;;;;;30.02;16.42;;;2.10;99.90;;;;;;5026243;28;20029;-83
2023/01/23 06:10:59;;;;;;;30.42;17.45;;;2.20;99.90;;;;;;5021548;28;20060;-82
2023/01/23 06:13:25;;;;;;;27.25;14.02;;;2.20;99.90;;;;;;5022705;28;20025;-82
2023/01/23 06:15:51;;;;;;;28.02;16.02;;;2.20;99.90;;;;;;5024855;28;20045;-82
2023/01/23 06:18:17;;;;;;;27.60;15.40;;;2.20;99.90;;;;;;4994894;28;20036;-82
2023/01/23 06:20:42;;;;;;;27.70;15.73;;;2.20;99.90;;;;;;4989076;28;20852;-82
2023/01/23 06:23:08;;;;;;;30.10;16.25;;;2.10;99.90;;;;;;4992781;28;20078;-82
2023/01/23 06:25:34;;;;;;;32.72;17.25;;;2.20;99.90;;;;;;5021569;28;20029;-82
2023/01/23 06:28:00;;;;;;;28.70;16.27;;;2.20;99.90;;;;;;5011353;28;20037;-82
2023/01/23 06:30:27;;;;;;;28.02;15.93;;;2.20;99.90;;;;;;5001371;28;20033;-82
2023/01/23 06:32:52;;;;;;;28.63;16.73;;;2.20;99.90;;;;;;5023254;28;20081;-82
2023/01/23 06:35:18;;;;;;;30.92;17.55;;;2.20;99.90;;;;;;4972479;28;20032;-83
2023/01/23 06:37:43;;;;;;;31.90;17.45;;;2.20;99.90;;;;;;5010012;28;20432;-83
2023/01/23 06:40:12;;;;;;;30.40;16.95;;;2.20;99.90;;;;;;5023636;28;20540;-83
2023/01/23 06:42:40;;;;;;;30.90;16.55;;;2.20;99.90;;;;;;5026336;28;20037;-81
2023/01/23 06:45:07;;;;;;;28.40;16.48;;;2.20;99.90;;;;;;5017991;28;20041;-82
2023/01/23 06:47:32;;;;;;;27.85;17.02;;;2.20;99.90;;;;;;4995001;28;20099;-81
2023/01/23 06:49:58;;;;;;;31.70;16.75;;;2.20;99.90;;;;;;5006422;28;20029;-81
2023/01/23 06:52:24;;;;;;;28.63;16.40;;;2.20;99.90;;;;;;4996031;28;20041;-81
2023/01/23 06:54:49;;;;;;;33.17;17.15;;;2.20;99.90;;;;;;5013745;28;20060;-81
2023/01/23 06:57:15;;;;;;;32.50;16.90;;;2.20;99.90;;;;;;4981665;28;20493;-82
2023/01/23 06:59:40;;;;;;;28.10;16.80;;;2.20;99.90;;;;;;5014955;28;20523;-81
2023/01/23 07:02:08;;;;;;;30.42;14.93;;;2.20;99.90;;;;;;5005288;28;20046;-80
2023/01/23 07:04:33;;;;;;;31.75;15.43;;;2.20;99.90;;;;;;4993199;28;20544;-82
2023/01/23 07:06:59;;;;;;;27.90;16.70;;;2.20;99.90;;;;;;5028996;28;20040;-85
2023/01/23 07:09:24;;;;;;;28.88;17.25;;;2.20;99.90;;;;;;5008816;28;20033;-85
2023/01/23 07:11:50;;;;;;;32.05;16.17;;;2.20;99.90;;;;;;5003579;28;20041;-85
2023/01/23 07:14:15;;;;;;;31.73;17.63;;;2.20;99.90;;;;;;4993464;28;20049;-84
2023/01/23 07:16:41;;;;;;;39.03;22.48;;;2.20;99.90;;;;;;5019891;28;20131;-85
2023/01/23 07:19:07;;;;;;;41.45;22.48;;;2.20;99.90;;;;;;4994143;28;20136;-85
2023/01/23 07:21:32;;;;;;;41.53;23.30;;;2.20;99.90;;;;;;5010773;28;20056;-85
2023/01/23 07:23:58;;;;;;;42.38;21.60;;;2.20;99.90;;;;;;4996779;28;20029;-85
2023/01/23 07:26:24;;;;;;;42.03;22.17;;;2.10;99.90;;;;;;5026813;28;20044;-86
2023/01/23 07:28:49;;;;;;;42.85;23.38;;;2.20;99.90;;;;;;5028529;28;20041;-85
2023/01/23 07:31:15;;;;;;;45.78;23.95;;;2.20;99.90;;;;;;4996688;28;20029;-84
2023/01/23 07:33:41;;;;;;;46.50;28.35;;;2.20;99.90;;;;;;5029660;28;20032;-84
2023/01/23 07:36:07;;;;;;;39.05;21.80;;;2.20;99.90;;;;;;5013043;28;20033;-84
2023/01/23 07:38:32;;;;;;;38.47;19.90;;;2.20;99.90;;;;;;5014501;28;20037;-86
2023/01/23 07:40:58;;;;;;;39.65;22.55;;;2.20;99.90;;;;;;5006535;28;20380;-85
2023/01/23 07:43:24;;;;;;;43.42;20.67;;;2.20;99.90;;;;;;5015660;28;20124;-85
2023/01/23 07:45:49;;;;;;;41.20;21.90;;;2.20;99.90;;;;;;5014681;28;20041;-85
2023/01/23 07:48:15;;;;;;;44.20;24.00;;;2.20;99.90;;;;;;5014331;28;20610;-85
2023/01/23 07:50:41;;;;;;;39.75;20.25;;;2.30;99.90;;;;;;4997415;28;20108;-86
2023/01/23 07:53:06;;;;;;;41.55;21.00;;;2.20;99.90;;;;;;4996601;28;20033;-85
2023/01/23 07:55:32;;;;;;;39.28;21.40;;;2.30;99.90;;;;;;4998737;28;20025;-85
2023/01/23 07:57:58;;;;;;;36.88;20.35;;;2.30;99.90;;;;;;5010937;28;20028;-84
2023/01/23 08:00:23;;;;;;;39.95;20.70;;;2.30;99.90;;;;;;5007527;28;20460;-85
2023/01/23 08:02:49;;;;;;;36.13;18.63;;;2.30;99.90;;;;;;5023825;28;20028;-85
2023/01/23 08:05:15;;;;;;;40.08;21.42;;;2.30;99.90;;;;;;5000289;28;20115;-85
2023/01/23 08:07:41;;;;;;;40.92;24.98;;;2.30;99.90;;;;;;5021178;28;20076;-85
2023/01/23 08:10:07;;;;;;;39.97;19.38;;;2.30;99.90;;;;;;5009575;28;20073;-85
2023/01/23 08:12:33;;;;;;;37.67;19.05;;;2.30;99.90;;;;;;5014551;28;20091;-85
2023/01/23 08:14:58;;;;;;;34.53;18.83;;;2.30;99.90;;;;;;4998192;28;20049;-84
2023/01/23 08:17:24;;;;;;;35.97;20.13;;;2.30;99.90;;;;;;5026232;28;20086;-84
2023/01/23 08:19:50;;;;;;;35.33;19.85;;;2.30;99.90;;;;;;5030258;28;20036;-83
2023/01/23 08:22:15;;;;;;;34.97;19.30;;;2.30;99.90;;;;;;4995426;28;20498;-83
2023/01/23 08:24:41;;;;;;;34.45;17.85;;;2.40;99.90;;;;;;5012757;28;20463;-84
2023/01/23 08:27:06;;;;;;;33.67;20.92;;;2.40;99.90;;;;;;5015870;28;20162;-85
2023/01/23 08:29:32;;;;;;;33.92;19.73;;;2.40;99.90;;;;;;4996066;28;20119;-85
2023/01/23 08:31:58;;;;;;;33.70;18.02;;;2.30;99.90;;;;;;5028490;28;20497;-86
2023/01/23 08:34:24;;;;;;;35.45;17.85;;;2.40;99.90;;;;;;5009916;28;20431;-86
2023/01/23 08:36:49;;;;;;;33.05;20.20;;;2.40;99.90;;;;;;4993582;28;20661;-84
2023/01/23 08:39:16;;;;;;;30.35;16.35;;;2.40;99.90;;;;;;5007050;28;20029;-83
2023/01/23 08:41:41;;;;;;;32.58;16.85;;;2.40;99.90;;;;;;4996334;28;20361;-82
2023/01/23 08:44:07;;;;;;;30.50;16.27;;;2.40;99.90;;;;;;5004964;28;20037;-83
2023/01/23 08:46:32;;;;;;;29.98;16.95;;;2.50;99.90;;;;;;5026445;28;20466;-83
2023/01/23 08:48:58;;;;;;;29.58;16.40;;;2.60;99.90;;;;;;5032178;28;20068;-83
2023/01/23 08:51:24;;;;;;;29.77;15.30;;;2.50;99.90;;;;;;5011993;28;20057;-84
2023/01/23 08:53:52;;;;;;;30.00;16.55;;;2.60;99.90;;;;;;5033508;28;20123;-83
2023/01/23 08:56:20;;;;;;;28.73;15.93;;;2.60;99.90;;;;;;5009168;28;20075;-82
2023/01/23 08:58:45;;;;;;;26.35;13.95;;;2.60;99.90;;;;;;5014389;28;20036;-83
2023/01/23 09:01:12;;;;;;;30.08;15.68;;;2.70;99.90;;;;;;5014241;28;20037;-83
2023/01/23 09:03:38;;;;;;;27.27;13.95;;;2.70;99.90;;;;;;5011642;28;20497;-82
2023/01/23 09:06:04;;;;;;;28.42;16.25;;;2.70;99.90;;;;;;5023493;28;20111;-83
2023/01/23 09:08:30;;;;;;;27.25;14.57;;;2.70;99.90;;;;;;5026760;28;20037;-82
2023/01/23 09:11:03;;;;;;;24.52;14.30;;;2.80;99.90;;;;;;5013764;28;20033;-82
2023/01/23 09:13:28;;;;;;;26.55;14.27;;;2.80;99.90;;;;;;4990944;28;20029;-81
2023/01/23 09:15:54;;;;;;;24.92;15.02;;;2.80;99.90;;;;;;4998525;28;20082;-82
2023/01/23 09:18:21;;;;;;;25.77;13.93;;;2.80;99.90;;;;;;4985770;28;20500;-84
2023/01/23 09:20:47;;;;;;;26.08;14.35;;;2.90;99.90;;;;;;5015332;28;20510;-81
2023/01/23 09:23:13;;;;;;;26.60;13.07;;;2.80;99.90;;;;;;5029732;28;20125;-81
2023/01/23 09:25:39;;;;;;;25.80;14.25;;;2.90;99.90;;;;;;4997174;28;20036;-82
2023/01/23 09:28:04;;;;;;;24.33;14.05;;;3.00;99.90;;;;;;5017331;28;20508;-81
2023/01/23 09:30:30;;;;;;;22.98;13.35;;;3.00;99.90;;;;;;5007732;28;20025;-82
2023/01/23 09:32:56;;;;;;;26.58;13.32;;;3.10;99.90;;;;;;5013792;28;20025;-81
2023/01/23 09:35:22;;;;;;;20.77;12.07;;;3.10;99.90;;;;;;5012989;28;20041;-81
2023/01/23 09:38:01;;;;;;;23.10;13.43;;;3.10;99.90;;;;;;4993766;28;20393;-81
2023/01/23 09:40:56;;;;;;;21.02;13.07;;;3.20;99.90;;;;;;5013404;28;20563;-81
2023/01/23 09:43:31;;;;;;;24.45;13.45;;;3.20;99.90;;;;;;4990386;28;20259;-81
2023/01/23 09:46:14;;;;;;;23.08;14.35;;;3.20;99.90;;;;;;4993422;28;20065;-82
2023/01/23 09:48:47;;;;;;;21.50;13.38;;;3.30;99.90;;;;;;5030215;28;20036;-81
2023/01/23 09:51:36;;;;;;;20.67;12.38;;;3.30;99.90;;;;;;5010436;28;20088;-80
2023/01/23 09:54:20;;;;;;;24.00;12.02;;;3.40;99.90;;;;;;5028854;28;20172;-81
2023/01/23 09:56:46;;;;;;;23.83;12.05;;;3.50;99.90;;;;;;5013179;28;20052;-81
2023/01/23 09:59:11;;;;;;;22.98;12.07;;;3.50;99.90;;;;;;5013952;28;20167;-81
2023/01/23 10:01:37;;;;;;;20.95;11.85;;;3.50;99.90;;;;;;5024701;28;20036;-81
2023/01/23 10:04:03;;;;;;;21.80;11.88;;;3.60;99.90;;;;;;5005578;28;20040;-81
2023/01/23 10:06:42;;;;;;;21.42;11.75;;;3.60;99.90;;;;;;5008356;28;20699;-81
2023/01/23 10:09:28;;;;;;;22.40;13.23;;;3.60;99.90;;;;;;5022103;28;20043;-81
2023/01/23 10:12:05;;;;;;;;;;;3.70;99.90;;;;;;5040339;28;20569;-81
2023/01/23 10:14:45;;;;;;;21.17;12.57;;;3.80;99.90;;;;;;5001842;28;20364;-81
2023/01/23 10:17:25;;;;;;;21.75;11.65;;;3.90;99.90;;;;;;5024591;28;20042;-81
2023/01/23 10:20:16;;;;;;;18.50;11.00;;;3.90;99.90;;;;;;5025572;28;20036;-81
2023/01/23 10:23:09;;;;;;;20.13;13.13;;;3.90;99.90;;;;;;5023938;28;20595;-81
2023/01/23 10:25:36;;;;;;;17.60;10.82;;;4.00;99.90;;;;;;5022064;28;20025;-83
2023/01/23 10:28:34;;;;;;;20.98;11.85;;;4.10;99.90;;;;;;5008912;28;20041;-82
2023/01/23 10:31:01;;;;;;;19.10;10.98;;;4.10;99.90;;;;;;5006616;28;20082;-81
2023/01/23 10:33:43;;;;;;;17.95;12.38;;;4.10;99.90;;;;;;4992968;28;20091;-81
2023/01/23 10:36:29;;;;;;;21.40;12.63;;;4.30;99.90;;;;;;4995231;28;20103;-81
2023/01/23 10:39:07;;;;;;;18.75;10.02;;;4.40;99.90;;;;;;5013086;28;20052;-81
2023/01/23 10:41:33;;;;;;;18.02;11.10;;;4.40;99.90;;;;;;5004307;28;20043;-82
2023/01/23 10:43:58;;;;;;;18.40;11.05;;;4.50;99.90;;;;;;5030510;28;20029;-81
2023/01/23 10:46:34;;;;;;;19.60;10.55;;;4.50;99.90;;;;;;5014229;28;20112;-82
2023/01/23 10:49:00;;;;;;;18.23;9.80;;;4.60;99.90;;;;;;5048244;28;20005;-81
2023/01/23 10:51:45;;;;;;;15.93;8.57;;;4.60;99.90;;;;;;5001317;28;20033;-82
2023/01/23 10:54:24;;;;;;;18.70;10.82;;;4.60;99.90;;;;;;5021762;28;20040;-82
2023/01/23 10:56:58;;;;;;;17.70;10.40;;;4.70;99.90;;;;;;5011168;28;20029;-82
2023/01/23 10:59:38;;;;;;;14.40;9.13;;;4.70;99.90;;;;;;5009596;28;20116;-82
2023/01/23 11:02:30;;;;;;;14.57;9.73;;;4.80;99.90;;;;;;5020242;28;20041;-83
2023/01/23 11:04:55;;;;;;;14.63;8.75;;;4.80;99.90;;;;;;5034317;28;20037;-83
2023/01/23 11:07:28;;;;;;;13.73;8.90;;;4.80;99.90;;;;;;4991790;28;20059;-82
2023/01/23 11:10:00;;;;;;;13.07;8.10;;;4.90;99.90;;;;;;5005922;28;20033;-83
2023/01/23 11:12:28;;;;;;;13.90;7.82;;;4.90;99.90;;;;;;5025187;28;20048;-83
2023/01/23 11:15:24;;;;;;;13.10;8.02;;;5.00;99.90;;;;;;4993522;28;20929;-83
2023/01/23 11:17:55;;;;;;;13.20;8.57;;;4.90;99.90;;;;;;5023305;28;20025;-83
2023/01/23 11:20:38;;;;;;;13.02;8.25;;;4.90;99.90;;;;;;4993822;28;20117;-83
2023/01/23 11:23:15;;;;;;;12.82;7.70;;;5.00;99.90;;;;;;5024450;28;20088;-81
2023/01/23 11:25:48;;;;;;;11.98;8.32;;;5.20;99.90;;;;;;5019073;28;20033;-82
2023/01/23 11:28:24;;;;;;;11.52;7.35;;;5.20;99.90;;;;;;5006586;28;20124;-82
2023/01/23 11:31:08;;;;;;;13.50;8.82;;;5.20;99.90;;;;;;5024508;28;20553;-83
2023/01/23 11:33:58;;;;;;;12.38;7.53;;;5.30;99.90;;;;;;5024248;28;20555;-82
2023/01/23 11:36:30;;;;;;;33.63;9.40;;;5.30;99.90;;;;;;5000985;28;20071;-83
2023/01/23 11:39:12;;;;;;;10.55;7.43;;;5.30;99.90;;;;;;5009071;28;20033;-82
2023/01/23 11:41:37;;;;;;;11.05;7.20;;;5.40;99.90;;;;;;5010184;28;20481;-82
2023/01/23 11:44:11;;;;;;;12.70;7.75;;;5.50;99.90;;;;;;4995254;28;20034;-82
2023/01/23 11:46:55;;;;;;;14.38;8.50;;;5.50;99.90;;;;;;5001995;28;20029;-82
2023/01/23 11:49:27;;;;;;;12.60;8.00;;;5.60;99.90;;;;;;5035665;28;20055;-83
2023/01/23 11:52:14;;;;;;;12.07;8.00;;;5.60;99.90;;;;;;5043365;28;20248;-82
2023/01/23 11:58:04;;;;;;;20.23;8.77;;;5.60;99.90;;;;;;5027725;28;19919;-83
2023/01/23 12:01:06;;;;;;;13.35;8.60;;;5.70;99.90;;;;;;4690826;28;9999702;-82
2023/01/23 12:03:35;;;;;;;10.77;7.70;;;5.70;99.90;;;;;;5022802;28;20116;-81
2023/01/23 12:06:39;;;;;;;14.52;8.77;;;5.70;99.90;;;;;;5020135;28;20036;-82
2023/01/23 12:09:13;;;;;;;12.15;8.07;;;5.70;99.90;;;;;;5041054;28;20037;-82
2023/01/23 12:11:38;;;;;;;12.57;7.97;;;5.70;99.90;;;;;;4996583;28;20109;-81
2023/01/23 12:14:15;;;;;;;13.55;9.02;;;5.70;99.90;;;;;;5028497;28;20037;-81
2023/01/23 12:17:07;;;;;;;12.13;7.75;;;5.80;99.90;;;;;;5020446;28;20559;-81
2023/01/23 12:19:33;;;;;;;12.90;8.93;;;5.80;99.90;;;;;;5011322;28;20026;-82
2023/01/23 12:22:09;;;;;;;14.27;8.55;;;5.90;99.90;;;;;;5027052;28;20044;-82
2023/01/23 12:24:47;;;;;;;;;;;5.80;99.90;;;;;;5015371;28;20125;-82
2023/01/23 12:27:46;;;;;;;13.18;8.68;;;5.80;99.90;;;;;;5026972;28;20162;-82
2023/01/23 12:30:37;;;;;;;14.32;9.68;;;5.90;99.90;;;;;;4996030;28;20033;-82
2023/01/23 12:33:47;;;;;;;12.68;8.60;;;5.90;99.90;;;;;;5053312;28;20040;-83
2023/01/23 12:36:42;;;;;;;14.13;9.63;;;5.90;99.90;;;;;;4909945;29;20039;-81
2023/01/23 12:39:13;;;;;;;14.65;9.23;;;5.90;99.90;;;;;;4909667;29;20728;-82
2023/01/23 12:41:48;;;;;;;15.15;9.88;;;5.90;99.90;;;;;;5009397;28;20033;-82
2023/01/23 12:44:25;;;;;;;13.43;9.13;;;5.90;99.90;;;;;;4994168;28;20389;-81
2023/01/23 12:46:55;;;;;;;18.90;9.60;;;5.90;99.90;;;;;;4995113;28;20053;-82
2023/01/23 12:49:39;;;;;;;14.90;9.55;;;5.90;99.90;;;;;;5008850;28;20452;-82
2023/01/23 12:52:20;;;;;;;14.52;9.35;;;5.90;99.90;;;;;;5018906;28;20420;-82
2023/01/23 12:54:50;;;;;;;13.82;8.27;;;5.90;99.90;;;;;;4996795;28;20026;-83
2023/01/23 12:57:38;;;;;;;15.27;10.20;;;5.90;99.90;;;;;;4998473;28;20021;-82